createdAt,value
2022-10-23T00:00:03.263Z,22.1
2022-10-23T00:05:00.120Z,22.1
2022-10-23T00:10:01.008Z,22.0
2022-10-23T00:15:00.128Z,22.1
2022-10-23T00:20:01.048Z,22.0
2022-10-23T00:25:00.154Z,22.1
2022-10-23T00:30:02.602Z,22.1
2022-10-23T00:35:00.109Z,22.1
2022-10-23T00:40:01.256Z,22.2
2022-10-23T00:45:01.054Z,22.2
2022-10-23T00:50:01.348Z,22.3
2022-10-23T00:55:01.286Z,22.3
2022-10-23T01:00:02.379Z,22.3
2022-10-23T01:05:01.356Z,22.4
2022-10-23T01:10:02.466Z,22.4
2022-10-23T01:15:00.084Z,22.4
2022-10-23T01:20:01.305Z,22.4
2022-10-23T01:25:00.130Z,22.5
2022-10-23T01:30:01.493Z,22.5
2022-10-23T01:35:00.987Z,22.5
2022-10-23T01:40:01.245Z,22.5
2022-10-23T01:45:01.033Z,22.5
2022-10-23T01:50:01.240Z,22.5
2022-10-23T01:55:00.102Z,22.5
2022-10-23T02:00:01.208Z,22.5
2022-10-23T02:05:01.605Z,22.5
2022-10-23T02:10:00.149Z,22.5
2022-10-23T02:15:01.038Z,22.5
2022-10-23T02:20:01.398Z,22.5
2022-10-23T02:25:00.118Z,22.5
2022-10-23T02:30:00.143Z,22.5
2022-10-23T02:35:00.102Z,22.5
2022-10-23T02:40:01.045Z,22.5
2022-10-23T02:45:01.659Z,22.5
2022-10-23T02:50:01.440Z,22.4
2022-10-23T02:55:00.966Z,22.4
2022-10-23T03:00:01.238Z,22.4
2022-10-23T03:05:00.118Z,22.4
2022-10-23T03:10:01.203Z,22.3
2022-10-23T03:15:00.099Z,22.3
2022-10-23T03:20:01.598Z,22.3
2022-10-23T03:25:01.050Z,22.2
2022-10-23T03:30:01.033Z,22.3
2022-10-23T03:35:00.091Z,22.3
2022-10-23T03:40:01.254Z,22.2
2022-10-23T03:45:00.955Z,22.2
2022-10-23T03:50:01.318Z,22.2
2022-10-23T03:55:00.092Z,22.2
2022-10-23T04:00:03.092Z,22.2
2022-10-23T04:05:01.216Z,22.2
2022-10-23T04:10:00.142Z,22.1
2022-10-23T04:15:01.331Z,22.1
2022-10-23T04:20:00.997Z,22.1
2022-10-23T04:25:00.951Z,22.1
2022-10-23T04:30:01.069Z,22.1
2022-10-23T04:35:02.986Z,22.1
2022-10-23T04:40:00.988Z,22.0
2022-10-23T04:45:00.938Z,22.0
2022-10-23T04:50:01.272Z,22.0
2022-10-23T04:55:01.534Z,22.0
2022-10-23T05:00:00.123Z,22.0
2022-10-23T05:05:00.090Z,22.0
2022-10-23T05:10:01.020Z,22.0
2022-10-23T05:15:01.084Z,22.0
2022-10-23T05:20:01.496Z,22.0
2022-10-23T05:25:01.210Z,22.0
2022-10-23T05:30:01.169Z,22.0
2022-10-23T05:35:00.115Z,22.0
2022-10-23T05:40:01.977Z,22.0
2022-10-23T05:45:01.449Z,22.0
2022-10-23T05:50:00.985Z,22.0
2022-10-23T05:55:01.044Z,21.9
2022-10-23T06:00:01.444Z,21.9
2022-10-23T06:05:00.964Z,21.9
2022-10-23T06:10:00.124Z,21.9
2022-10-23T06:15:00.139Z,21.9
2022-10-23T06:20:01.430Z,21.9
2022-10-23T06:25:00.944Z,21.9
2022-10-23T06:30:01.309Z,21.9
2022-10-23T06:35:01.019Z,21.9
2022-10-23T06:40:01.469Z,21.8
2022-10-23T06:45:03.313Z,21.9
2022-10-23T06:50:01.027Z,21.9
2022-10-23T06:55:00.119Z,21.8
2022-10-23T07:00:00.127Z,21.8
2022-10-23T07:05:00.949Z,21.8
2022-10-23T07:10:01.235Z,21.9
2022-10-23T07:15:01.241Z,21.8
2022-10-23T07:20:02.179Z,21.8
2022-10-23T07:25:01.018Z,21.8
2022-10-23T07:30:00.967Z,21.8
2022-10-23T07:35:01.281Z,21.8
2022-10-23T07:40:03.240Z,21.9
2022-10-23T07:45:01.498Z,21.9
2022-10-23T07:50:03.812Z,21.9
2022-10-23T07:55:00.129Z,21.9
2022-10-23T08:00:01.239Z,21.9
2022-10-23T08:05:00.093Z,22.0
2022-10-23T08:10:01.070Z,22.0
2022-10-23T08:15:00.099Z,22.0
2022-10-23T08:20:01.016Z,22.1
2022-10-23T08:25:01.525Z,22.1
2022-10-23T08:30:01.549Z,22.1
2022-10-23T08:35:00.105Z,22.1
2022-10-23T08:40:02.141Z,22.2
2022-10-23T08:45:01.022Z,22.2
2022-10-23T08:50:00.157Z,22.2
2022-10-23T08:55:00.993Z,22.2
2022-10-23T09:00:01.286Z,22.3
2022-10-23T09:05:01.199Z,22.3
2022-10-23T09:10:00.163Z,22.3
2022-10-23T09:15:00.973Z,22.3
2022-10-23T09:20:00.990Z,22.3
2022-10-23T09:25:00.092Z,22.4
2022-10-23T09:30:01.265Z,22.4
2022-10-23T09:35:01.017Z,22.4
2022-10-23T09:40:00.126Z,22.4
2022-10-23T09:45:00.103Z,22.4
2022-10-23T09:50:01.318Z,22.5
2022-10-23T09:55:01.176Z,22.5
2022-10-23T10:00:01.263Z,22.5
2022-10-23T10:05:00.974Z,22.5
2022-10-23T10:10:01.092Z,22.5
2022-10-23T10:15:00.087Z,22.5
2022-10-23T10:20:02.477Z,22.5
2022-10-23T10:25:00.108Z,22.5
2022-10-23T10:30:01.546Z,22.5
2022-10-23T10:35:01.241Z,22.5
2022-10-23T10:40:01.916Z,22.5
2022-10-23T10:45:00.107Z,22.5
2022-10-23T10:50:02.695Z,22.6
2022-10-23T10:55:00.111Z,22.6
2022-10-23T11:00:01.626Z,22.6
2022-10-23T11:05:00.104Z,22.7
2022-10-23T11:10:02.198Z,22.7
2022-10-23T11:15:00.135Z,22.7
2022-10-23T11:20:01.269Z,22.7
2022-10-23T11:25:00.081Z,22.7
2022-10-23T11:30:01.331Z,22.7
2022-10-23T11:35:00.120Z,22.7
2022-10-23T11:40:00.975Z,22.7
2022-10-23T11:45:00.091Z,22.7
2022-10-23T11:50:01.364Z,22.7
2022-10-23T11:55:01.027Z,22.7
2022-10-23T12:00:01.246Z,22.7
2022-10-23T12:05:01.718Z,22.7
2022-10-23T12:10:00.831Z,22.7
2022-10-23T12:15:00.984Z,22.7
2022-10-23T12:20:01.024Z,22.8
2022-10-23T12:25:01.288Z,22.8
2022-10-23T12:30:01.005Z,22.8
2022-10-23T12:35:00.118Z,22.8
2022-10-23T12:40:01.383Z,22.8
2022-10-23T12:45:01.201Z,22.8
2022-10-23T12:50:01.126Z,22.8
2022-10-23T12:55:01.286Z,22.8
2022-10-23T13:00:00.994Z,22.8
2022-10-23T13:05:00.144Z,22.8
2022-10-23T13:10:01.221Z,22.8
2022-10-23T13:15:01.568Z,22.7
2022-10-23T13:20:01.258Z,22.7
2022-10-23T13:25:02.654Z,22.6
2022-10-23T13:30:01.312Z,22.5
2022-10-23T13:35:17.271Z,22.5
2022-10-23T13:40:01.270Z,22.5
2022-10-23T13:45:00.166Z,22.5
2022-10-23T13:50:01.236Z,22.4
2022-10-23T13:55:00.126Z,22.5
2022-10-23T14:00:01.354Z,22.4
2022-10-23T14:05:01.043Z,22.4
2022-10-23T14:10:01.279Z,22.4
2022-10-23T14:15:00.114Z,22.4
2022-10-23T14:20:02.141Z,22.4
2022-10-23T14:25:00.095Z,22.4
2022-10-23T14:30:02.413Z,22.5
2022-10-23T14:35:00.113Z,22.5
2022-10-23T14:40:01.275Z,22.5
2022-10-23T14:45:02.366Z,22.5
2022-10-23T14:50:00.153Z,22.5
2022-10-23T14:55:01.518Z,22.6
2022-10-23T15:00:00.185Z,22.7
2022-10-23T15:05:00.129Z,22.9
2022-10-23T15:10:01.310Z,22.9
2022-10-23T15:15:00.097Z,23.0
2022-10-23T15:20:01.339Z,23.0
2022-10-23T15:25:03.064Z,23.0
2022-10-23T15:30:01.718Z,23.0
2022-10-23T15:35:02.456Z,23.0
2022-10-23T15:40:02.439Z,23.0
2022-10-23T15:45:00.117Z,23.0
2022-10-23T15:50:02.894Z,23.0
2022-10-23T15:55:01.519Z,23.0
2022-10-23T16:00:02.148Z,23.0
2022-10-23T16:05:01.550Z,23.0
2022-10-23T16:10:00.218Z,22.9
2022-10-23T16:15:01.017Z,22.9
2022-10-23T16:20:00.273Z,22.9
2022-10-23T16:25:00.965Z,22.9
2022-10-23T16:30:01.395Z,23.0
2022-10-23T16:35:04.426Z,23.0
2022-10-23T16:40:00.145Z,23.0
2022-10-23T16:45:00.956Z,23.0
2022-10-23T16:50:00.166Z,23.0
2022-10-23T16:55:01.018Z,23.0
2022-10-23T17:00:03.525Z,23.0
2022-10-23T17:05:00.113Z,23.0
2022-10-23T17:10:00.991Z,23.0
2022-10-23T17:15:01.023Z,23.0
2022-10-23T17:20:00.961Z,23.0
2022-10-23T17:25:02.507Z,23.0
2022-10-23T17:30:01.054Z,23.1
2022-10-23T17:35:01.272Z,23.0
2022-10-23T17:40:01.278Z,23.1
2022-10-23T17:45:01.005Z,23.1
2022-10-23T17:50:00.976Z,23.1
2022-10-23T17:55:00.994Z,23.1
2022-10-23T18:00:01.004Z,23.1
2022-10-23T18:05:01.565Z,23.1
2022-10-23T18:10:00.980Z,23.1
2022-10-23T18:15:00.140Z,23.1
2022-10-23T18:20:03.446Z,23.2
2022-10-23T18:25:01.015Z,23.2
2022-10-23T18:30:01.491Z,23.1
2022-10-23T18:35:00.175Z,23.1
2022-10-23T18:40:02.067Z,23.1
2022-10-23T18:45:01.280Z,23.2
2022-10-23T18:50:02.216Z,23.1
2022-10-23T18:55:01.833Z,23.2
2022-10-23T19:00:00.977Z,23.2
2022-10-23T19:05:00.120Z,23.1
2022-10-23T19:10:02.086Z,23.2
2022-10-23T19:15:01.289Z,23.2
2022-10-23T19:20:00.118Z,23.1
2022-10-23T19:25:00.107Z,23.2
2022-10-23T19:30:02.020Z,23.2
2022-10-23T19:35:03.092Z,23.2
2022-10-23T19:40:02.846Z,23.1
2022-10-23T19:45:01.278Z,23.2
2022-10-23T19:50:02.358Z,23.2
2022-10-23T19:55:01.050Z,23.2
2022-10-23T20:00:00.144Z,23.1
2022-10-23T20:05:01.036Z,23.2
2022-10-23T20:10:01.545Z,23.2
2022-10-23T20:15:00.133Z,23.2
2022-10-23T20:20:00.151Z,23.2
2022-10-23T20:25:00.120Z,23.2
2022-10-23T20:30:01.309Z,23.2
2022-10-23T20:35:00.135Z,23.2
2022-10-23T20:40:01.398Z,23.2
2022-10-23T20:45:02.460Z,23.2
2022-10-23T20:50:01.023Z,23.2
2022-10-23T20:55:01.556Z,23.2
2022-10-23T21:00:03.259Z,23.1
2022-10-23T21:05:01.346Z,23.2
2022-10-23T21:10:00.135Z,23.2
2022-10-23T21:15:00.145Z,23.1
2022-10-23T21:20:01.303Z,23.2
2022-10-23T21:25:01.278Z,23.1
2022-10-23T21:30:01.888Z,23.1
2022-10-23T21:35:00.123Z,23.1
2022-10-23T21:40:00.124Z,23.1
2022-10-23T21:45:01.229Z,23.1
2022-10-23T21:50:00.999Z,23.1
2022-10-23T21:55:00.126Z,23.1
2022-10-23T22:00:01.325Z,23.1
2022-10-23T22:05:01.157Z,23.1
2022-10-23T22:10:00.121Z,23.1
2022-10-23T22:15:01.050Z,23.1
2022-10-23T22:20:01.549Z,23.1
2022-10-23T22:25:00.103Z,23.1
2022-10-23T22:30:01.439Z,23.1
2022-10-23T22:35:00.105Z,23.1
2022-10-23T22:40:00.102Z,23.1
2022-10-23T22:45:00.111Z,23.1
2022-10-23T22:50:01.133Z,23.1
2022-10-23T22:55:01.022Z,23.1
2022-10-23T23:00:02.815Z,23.1
2022-10-23T23:05:01.234Z,23.1
2022-10-23T23:10:01.294Z,23.1
2022-10-23T23:15:01.212Z,23.1
2022-10-23T23:20:01.054Z,23.1
2022-10-23T23:25:00.094Z,23.1
2022-10-23T23:30:00.114Z,23.1
2022-10-23T23:35:00.127Z,23.0
2022-10-23T23:40:00.752Z,23.0
2022-10-23T23:45:03.031Z,22.9
2022-10-23T23:50:02.256Z,22.8
2022-10-23T23:55:00.096Z,22.6
